Terminal Aerodrome Forecast
Issued by NWS Sterling, VA

Current Version | Previous Version | Text Only | Print | Product List | Glossary On
Versions: 1 2 3 4 5 6 7 8 9 10 11 12 13 14 15 16 17 18
108
FTUS41 KLWX 280900 AAA
TAFMRB
TAF AMD
KMRB 280900Z 2809/2906 00000KT 1/4SM FG OVC001
     FM281100 00000KT 1SM BR BKN003
     FM281300 VRB03KT 3SM BR BKN010
     FM281500 14004KT P6SM BKN020
     FM281800 14007KT P6SM -SHRA OVC035
     FM290300 15006KT 3SM -SHRA OVC008=

USA.gov is the U.S. government's official web portal to all federal, state and local government web resources and services.